Time;durP1;ratioP1;P1;durP2;ratioP2;P2;SDS_P1;SDS_P2;PMS_P1;PMS_P2;Temp;Humidity;BMP_temperature;BMP_pressure;BME280_temperature;BME280_humidity;BME280_pressure;Samples;Min_cycle;Max_cycle;Signal;HPM_P1;HPM_P2
2022/11/30 00:00:14;;;;;;;13.27;8.23;;;17.30;84.40;;;;;;6182998;23;46578;-67
2022/11/30 00:02:41;;;;;;;15.88;8.00;;;17.30;83.60;;;;;;6182389;23;45870;-67
2022/11/30 00:05:09;;;;;;;17.70;9.20;;;17.30;83.80;;;;;;6183216;23;45235;-67
2022/11/30 00:07:36;;;;;;;16.83;8.75;;;17.30;83.90;;;;;;6181894;23;45620;-67
2022/11/30 00:10:03;;;;;;;17.50;8.85;;;17.30;83.50;;;;;;6183185;23;46242;-67
2022/11/30 00:12:30;;;;;;;17.23;8.68;;;17.30;84.20;;;;;;6182368;23;45221;-67
2022/11/30 00:14:56;;;;;;;18.15;9.68;;;17.30;84.20;;;;;;6183085;23;45276;-67
2022/11/30 00:17:23;;;;;;;18.38;9.68;;;17.30;84.50;;;;;;6182621;23;45484;-67
2022/11/30 00:19:50;;;;;;;15.98;8.82;;;17.40;84.90;;;;;;6182255;23;45312;-67
2022/11/30 00:22:18;;;;;;;20.33;9.10;;;17.30;85.00;;;;;;6182398;23;45345;-67
2022/11/30 00:24:44;;;;;;;17.85;9.52;;;17.30;84.90;;;;;;6182222;23;45301;-67
2022/11/30 00:27:11;;;;;;;19.48;9.48;;;17.30;85.20;;;;;;6182744;23;45237;-67
2022/11/30 00:29:38;;;;;;;17.60;9.18;;;17.40;85.10;;;;;;6182478;23;46257;-67
2022/11/30 00:32:05;;;;;;;21.75;9.95;;;17.30;84.90;;;;;;6181668;23;45337;-67
2022/11/30 00:34:32;;;;;;;20.13;9.85;;;17.30;84.50;;;;;;6183277;23;45300;-67
2022/11/30 00:37:00;;;;;;;19.40;9.68;;;17.30;84.80;;;;;;6180769;23;45448;-67
2022/11/30 00:39:28;;;;;;;21.17;11.18;;;17.30;84.50;;;;;;6182650;23;45382;-67
2022/11/30 00:41:55;;;;;;;19.60;9.82;;;17.30;84.20;;;;;;6182066;23;45348;-67
2022/11/30 00:44:21;;;;;;;21.08;10.70;;;17.30;84.30;;;;;;6183218;23;45412;-67
2022/11/30 00:46:48;;;;;;;20.55;10.70;;;17.30;84.00;;;;;;6182358;23;45422;-67
2022/11/30 00:49:15;;;;;;;19.98;10.88;;;17.30;83.70;;;;;;6182320;23;46312;-67
2022/11/30 00:51:42;;;;;;;19.67;10.25;;;17.30;84.00;;;;;;6182926;23;45186;-67
2022/11/30 00:54:09;;;;;;;18.45;10.27;;;17.30;84.20;;;;;;6182309;23;45293;-68
2022/11/30 00:56:37;;;;;;;19.15;9.98;;;17.30;83.90;;;;;;6182028;23;45371;-67
2022/11/30 00:59:04;;;;;;;20.73;10.25;;;17.30;84.20;;;;;;6182457;23;48041;-67
2022/11/30 01:01:31;;;;;;;18.55;9.82;;;17.30;84.00;;;;;;6182543;23;45285;-68
2022/11/30 01:03:57;;;;;;;19.67;10.70;;;17.30;84.60;;;;;;6182951;23;45261;-67
2022/11/30 01:06:24;;;;;;;20.20;10.32;;;17.30;84.60;;;;;;6180653;23;45535;-67
2022/11/30 01:08:51;;;;;;;18.85;9.90;;;17.40;84.60;;;;;;6181605;23;47830;-67
2022/11/30 01:11:22;;;;;;;17.60;9.57;;;17.40;85.00;;;;;;6181369;23;45376;-68
2022/11/30 01:13:51;;;;;;;19.52;10.38;;;17.30;84.90;;;;;;6182965;23;45501;-67
2022/11/30 01:16:21;;;;;;;18.08;9.18;;;17.40;85.00;;;;;;6182255;23;45256;-67
2022/11/30 01:18:49;;;;;;;19.02;9.63;;;17.40;85.30;;;;;;6182357;23;47068;-67
2022/11/30 01:21:19;;;;;;;17.30;9.18;;;17.40;85.10;;;;;;6182132;23;45280;-67
2022/11/30 01:23:46;;;;;;;16.50;8.88;;;17.40;85.50;;;;;;6181382;23;45316;-67
2022/11/30 01:26:13;;;;;;;18.48;9.48;;;17.40;84.80;;;;;;6182541;23;45270;-68
2022/11/30 01:28:42;;;;;;;18.70;9.15;;;17.40;85.00;;;;;;6181110;23;45432;-67
2022/11/30 01:31:12;;;;;;;14.73;8.48;;;17.40;84.90;;;;;;6182474;23;45300;-67
2022/11/30 01:33:40;;;;;;;16.33;8.32;;;17.40;84.90;;;;;;6181107;23;45133;-68
2022/11/30 01:36:10;;;;;;;15.05;8.20;;;17.40;84.50;;;;;;6181858;23;45480;-68
2022/11/30 01:38:38;;;;;;;16.83;8.75;;;17.40;84.40;;;;;;6181895;23;47064;-67
2022/11/30 01:41:07;;;;;;;16.30;8.25;;;17.30;84.60;;;;;;6181929;23;45333;-68
2022/11/30 01:43:39;;;;;;;15.98;8.25;;;17.30;84.10;;;;;;6182868;23;45380;-68
2022/11/30 01:46:17;;;;;;;15.65;8.23;;;17.40;84.50;;;;;;6181943;23;45312;-68
2022/11/30 01:48:46;;;;;;;15.65;8.32;;;17.40;84.30;;;;;;6182411;23;46328;-68
2022/11/30 01:51:13;;;;;;;15.38;7.90;;;17.40;84.20;;;;;;6182612;23;45672;-68
2022/11/30 01:53:40;;;;;;;14.25;7.45;;;17.30;84.00;;;;;;6182170;23;45426;-67
2022/11/30 01:56:07;;;;;;;13.98;7.90;;;17.30;84.30;;;;;;6182690;23;45546;-68
2022/11/30 01:58:35;;;;;;;13.55;8.02;;;17.30;84.60;;;;;;6180891;23;46398;-68
2022/11/30 02:01:02;;;;;;;15.32;8.18;;;17.30;84.90;;;;;;6182383;23;45368;-67
2022/11/30 02:03:35;;;;;;;13.98;7.97;;;17.40;85.40;;;;;;6182223;23;45237;-68
2022/11/30 02:06:04;;;;;;;12.60;7.13;;;17.40;85.20;;;;;;6182303;23;45399;-67
2022/11/30 02:08:31;;;;;;;16.77;8.18;;;17.40;85.20;;;;;;6181468;23;46230;-68
2022/11/30 02:11:02;;;;;;;14.15;8.02;;;17.40;85.20;;;;;;6180957;23;45356;-68
2022/11/30 02:13:39;;;;;;;13.98;7.55;;;17.40;85.40;;;;;;6182502;23;45389;-67
2022/11/30 02:16:15;;;;;;;12.95;7.57;;;17.40;85.50;;;;;;6181530;23;45512;-68
2022/11/30 02:18:49;;;;;;;15.13;8.25;;;17.40;85.30;;;;;;6181463;23;46414;-68
2022/11/30 02:21:22;;;;;;;15.63;8.20;;;17.40;85.00;;;;;;6181426;23;45371;-68
2022/11/30 02:24:08;;;;;;;14.80;8.13;;;17.40;85.00;;;;;;6182286;23;45162;-68
2022/11/30 02:27:02;;;;;;;16.88;8.32;;;17.40;84.80;;;;;;6181251;23;45229;-69
2022/11/30 02:29:34;;;;;;;15.55;8.20;;;17.40;84.30;;;;;;6177114;23;45457;-68
2022/11/30 02:32:08;;;;;;;13.40;7.53;;;17.40;84.40;;;;;;6180125;23;45336;-68
2022/11/30 02:34:37;;;;;;;13.50;7.72;;;17.40;84.50;;;;;;6181897;23;45256;-68
2022/11/30 02:37:08;;;;;;;16.13;7.78;;;17.40;84.50;;;;;;6181219;23;45173;-68
2022/11/30 02:39:35;;;;;;;14.43;7.15;;;17.40;84.10;;;;;;6181232;23;46255;-68
2022/11/30 02:42:02;;;;;;;12.23;7.35;;;17.40;84.30;;;;;;6182133;23;45418;-68
2022/11/30 02:44:30;;;;;;;15.60;7.43;;;17.40;84.30;;;;;;6181483;23;45277;-68
2022/11/30 02:47:07;;;;;;;12.98;7.57;;;17.40;84.00;;;;;;6182668;23;45377;-68
2022/11/30 02:49:42;;;;;;;15.98;8.32;;;17.30;84.20;;;;;;6183397;23;45363;-68
2022/11/30 02:52:11;;;;;;;14.55;7.97;;;17.40;84.60;;;;;;6182852;23;45284;-68
2022/11/30 02:54:38;;;;;;;13.32;7.65;;;17.40;85.00;;;;;;6183746;23;45337;-68
2022/11/30 02:57:04;;;;;;;17.95;8.27;;;17.40;84.90;;;;;;6182553;23;45397;-68
2022/11/30 02:59:33;;;;;;;14.30;8.07;;;17.40;85.10;;;;;;6183399;23;45302;-68
2022/11/30 03:02:00;;;;;;;13.82;7.70;;;17.40;85.20;;;;;;6182738;23;45353;-68
2022/11/30 03:04:26;;;;;;;14.52;7.95;;;17.40;85.00;;;;;;6183595;23;45232;-68
2022/11/30 03:06:54;;;;;;;15.25;8.65;;;17.40;85.20;;;;;;6181610;23;45434;-68
2022/11/30 03:09:21;;;;;;;13.90;7.88;;;17.40;85.30;;;;;;6182763;23;47212;-68
2022/11/30 03:11:47;;;;;;;15.60;7.82;;;17.40;85.30;;;;;;6182886;23;45328;-68
2022/11/30 03:14:14;;;;;;;17.13;7.70;;;17.40;85.10;;;;;;6182785;23;45491;-69
2022/11/30 03:16:43;;;;;;;15.05;8.48;;;17.40;84.90;;;;;;6182921;23;45519;-68
2022/11/30 03:19:10;;;;;;;14.07;7.47;;;17.40;84.70;;;;;;6182662;23;48337;-68
2022/11/30 03:21:36;;;;;;;13.05;7.10;;;17.40;84.80;;;;;;6183139;23;45311;-68
2022/11/30 03:24:03;;;;;;;14.73;7.47;;;17.40;85.40;;;;;;6183288;23;45322;-68
2022/11/30 03:26:30;;;;;;;14.38;7.97;;;17.40;84.30;;;;;;6182406;23;45517;-68
2022/11/30 03:28:57;;;;;;;14.63;7.88;;;17.40;84.20;;;;;;6183053;23;46264;-68
2022/11/30 03:31:24;;;;;;;15.80;8.35;;;17.40;84.30;;;;;;6180778;23;45279;-68
2022/11/30 03:33:52;;;;;;;12.65;7.43;;;17.40;84.60;;;;;;6183521;23;45222;-68
2022/11/30 03:36:19;;;;;;;13.25;7.65;;;17.40;84.30;;;;;;6183348;23;45362;-68
2022/11/30 03:38:46;;;;;;;12.23;7.50;;;17.40;84.30;;;;;;6181776;23;46434;-68
2022/11/30 03:41:16;;;;;;;14.05;7.63;;;17.40;84.20;;;;;;6183462;23;45354;-68
2022/11/30 03:43:43;;;;;;;13.63;7.90;;;17.40;83.80;;;;;;6182527;23;45264;-68
2022/11/30 03:46:10;;;;;;;14.02;7.60;;;17.40;84.20;;;;;;6183244;23;45407;-68
2022/11/30 03:48:37;;;;;;;14.80;7.53;;;17.40;84.80;;;;;;6181896;23;47562;-68
2022/11/30 03:51:05;;;;;;;14.65;7.50;;;17.40;84.50;;;;;;6182867;23;45304;-68
2022/11/30 03:53:33;;;;;;;10.65;6.68;;;17.40;84.40;;;;;;6183422;23;45288;-68
2022/11/30 03:56:01;;;;;;;15.52;7.70;;;17.40;84.40;;;;;;6182210;23;45333;-68
2022/11/30 03:58:29;;;;;;;15.25;7.55;;;17.40;84.50;;;;;;6181584;23;47658;-69
2022/11/30 04:01:01;;;;;;;11.25;6.90;;;17.40;84.70;;;;;;6182299;23;45272;-68
2022/11/30 04:03:28;;;;;;;12.20;7.03;;;17.40;84.40;;;;;;6183135;23;45219;-68
2022/11/30 04:05:55;;;;;;;11.43;6.90;;;17.40;84.60;;;;;;6182868;23;45463;-68
2022/11/30 04:08:24;;;;;;;12.45;6.93;;;17.40;84.80;;;;;;6182127;23;46459;-68
2022/11/30 04:10:51;;;;;;;13.60;7.53;;;17.40;84.30;;;;;;6182672;23;45231;-69
2022/11/30 04:13:18;;;;;;;11.05;6.68;;;17.40;84.30;;;;;;6182811;23;45502;-68
2022/11/30 04:15:46;;;;;;;12.40;6.82;;;17.40;84.00;;;;;;6183349;23;45204;-68
2022/11/30 04:18:13;;;;;;;10.77;6.20;;;17.40;84.20;;;;;;6181544;23;45315;-68
2022/11/30 04:20:40;;;;;;;10.85;6.60;;;17.40;83.60;;;;;;6183030;23;45355;-68
2022/11/30 04:23:07;;;;;;;10.85;6.43;;;17.40;83.30;;;;;;6183381;23;45224;-68
2022/11/30 04:25:37;;;;;;;10.23;6.72;;;17.40;82.90;;;;;;6182842;23;45330;-68
2022/11/30 04:28:03;;;;;;;10.93;6.95;;;17.30;82.60;;;;;;6182005;23;46393;-68
2022/11/30 04:30:30;;;;;;;11.35;6.88;;;17.30;82.10;;;;;;6182598;23;45246;-67
2022/11/30 04:32:57;;;;;;;9.88;6.63;;;17.30;81.80;;;;;;6181153;23;45319;-68
2022/11/30 04:35:24;;;;;;;11.07;6.78;;;17.30;81.50;;;;;;6182594;23;45356;-68
2022/11/30 04:37:50;;;;;;;11.10;6.93;;;17.30;81.50;;;;;;6181753;23;46458;-68
2022/11/30 04:40:17;;;;;;;9.50;6.20;;;17.30;81.40;;;;;;6182875;23;45399;-67
2022/11/30 04:42:45;;;;;;;12.57;7.03;;;17.30;81.70;;;;;;6182396;23;45216;-68
2022/11/30 04:45:12;;;;;;;14.10;7.45;;;17.30;81.60;;;;;;6182626;23;45166;-68
2022/11/30 04:47:39;;;;;;;10.93;6.45;;;17.30;81.50;;;;;;6181576;23;45313;-68
2022/11/30 04:50:08;;;;;;;11.15;6.80;;;17.30;81.50;;;;;;6182705;23;45368;-68
2022/11/30 04:52:35;;;;;;;11.02;6.80;;;17.30;81.20;;;;;;6182552;23;45355;-68
2022/11/30 04:55:03;;;;;;;10.90;6.88;;;17.30;81.00;;;;;;6182674;23;45309;-68
2022/11/30 04:57:30;;;;;;;13.23;7.57;;;17.30;81.10;;;;;;6181882;23;46230;-69
2022/11/30 04:59:58;;;;;;;9.60;6.88;;;17.30;80.80;;;;;;6182165;23;45935;-68
2022/11/30 05:02:25;;;;;;;9.75;6.70;;;17.30;80.90;;;;;;6182846;23;45301;-69
2022/11/30 05:04:52;;;;;;;10.27;6.85;;;17.30;80.60;;;;;;6182458;23;45202;-69
2022/11/30 05:07:19;;;;;;;9.57;6.45;;;17.30;80.00;;;;;;6181815;23;45298;-68
2022/11/30 05:09:46;;;;;;;11.38;7.38;;;17.30;79.20;;;;;;6182722;23;45294;-68
2022/11/30 05:12:13;;;;;;;10.95;6.18;;;17.30;79.20;;;;;;6182376;22;45277;-68
2022/11/30 05:14:39;;;;;;;9.25;6.22;;;17.30;79.10;;;;;;6183279;23;45401;-69
2022/11/30 05:17:07;;;;;;;10.50;6.60;;;17.20;78.80;;;;;;6181122;23;47497;-68
2022/11/30 05:19:34;;;;;;;11.02;6.85;;;17.30;78.20;;;;;;6182915;23;46174;-68
2022/11/30 05:22:01;;;;;;;11.60;6.70;;;17.20;78.20;;;;;;6182312;23;45249;-68
2022/11/30 05:24:28;;;;;;;12.68;6.93;;;17.20;77.70;;;;;;6182853;23;45359;-68
2022/11/30 05:26:55;;;;;;;11.20;6.93;;;17.20;77.40;;;;;;6180836;23;47034;-68
2022/11/30 05:29:22;;;;;;;9.95;6.90;;;17.30;77.50;;;;;;6180409;23;45268;-69
2022/11/30 05:31:49;;;;;;;9.85;6.38;;;17.30;77.30;;;;;;6178955;23;45229;-68
2022/11/30 05:34:17;;;;;;;9.15;6.18;;;17.20;76.90;;;;;;6181683;23;45366;-68
2022/11/30 05:36:44;;;;;;;10.13;6.40;;;17.20;77.80;;;;;;6181401;23;47995;-68
2022/11/30 05:39:11;;;;;;;11.68;6.20;;;17.30;78.30;;;;;;6181418;23;45700;-69
2022/11/30 05:41:37;;;;;;;10.43;6.60;;;17.30;78.40;;;;;;6182055;23;45312;-68
2022/11/30 05:44:05;;;;;;;8.82;5.82;;;17.30;78.20;;;;;;6182771;23;45321;-68
2022/11/30 05:46:32;;;;;;;9.60;6.28;;;17.20;78.20;;;;;;6181399;23;47433;-69
2022/11/30 05:48:58;;;;;;;8.95;6.57;;;17.30;78.40;;;;;;6181409;23;45268;-69
2022/11/30 05:51:27;;;;;;;9.85;6.45;;;17.30;78.20;;;;;;6181823;23;45384;-68
2022/11/30 05:53:53;;;;;;;8.93;5.97;;;17.20;77.90;;;;;;6182760;23;45217;-68
2022/11/30 05:56:21;;;;;;;9.00;5.65;;;17.20;77.90;;;;;;6181832;23;47493;-68
2022/11/30 05:58:48;;;;;;;9.77;6.25;;;17.30;76.80;;;;;;6181478;23;45390;-68
2022/11/30 06:01:19;;;;;;;10.13;6.55;;;17.20;75.40;;;;;;6182740;23;45326;-68
2022/11/30 06:03:46;;;;;;;11.27;7.07;;;17.20;74.80;;;;;;6181798;23;45212;-68
2022/11/30 06:06:13;;;;;;;9.88;6.30;;;17.20;74.70;;;;;;6182080;23;46344;-69
2022/11/30 06:08:41;;;;;;;8.80;6.55;;;17.20;74.20;;;;;;6181118;23;45382;-68
2022/11/30 06:11:08;;;;;;;8.57;5.85;;;17.20;73.90;;;;;;6181800;23;45295;-68
2022/11/30 06:13:35;;;;;;;10.60;6.45;;;17.20;74.20;;;;;;6182638;23;45193;-68
2022/11/30 06:16:02;;;;;;;10.68;6.30;;;17.10;73.60;;;;;;6181578;23;48740;-68
2022/11/30 06:18:29;;;;;;;9.90;6.18;;;17.10;73.60;;;;;;6181717;23;45287;-68
2022/11/30 06:21:00;;;;;;;9.82;6.57;;;17.10;73.60;;;;;;6182501;23;45313;-68
2022/11/30 06:23:27;;;;;;;9.68;6.63;;;17.10;75.60;;;;;;6183680;23;45424;-69
2022/11/30 06:25:55;;;;;;;11.18;6.40;;;17.10;75.10;;;;;;6182910;23;45339;-69
2022/11/30 06:28:22;;;;;;;9.45;6.03;;;17.10;74.50;;;;;;6182372;23;45385;-69
2022/11/30 06:30:49;;;;;;;9.82;6.25;;;17.10;74.60;;;;;;6181210;23;45265;-68
2022/11/30 06:33:16;;;;;;;10.85;6.93;;;17.10;75.70;;;;;;6180933;23;45226;-69
2022/11/30 06:35:45;;;;;;;11.55;6.43;;;17.20;75.80;;;;;;6183138;23;47353;-68
2022/11/30 06:38:13;;;;;;;10.63;6.60;;;17.20;75.80;;;;;;6180815;23;45333;-68
2022/11/30 06:40:39;;;;;;;9.15;6.28;;;17.10;75.70;;;;;;6183489;23;45239;-69
2022/11/30 06:43:08;;;;;;;7.85;5.40;;;17.20;75.80;;;;;;6183559;23;45340;-68
2022/11/30 06:45:34;;;;;;;10.00;6.35;;;17.20;75.80;;;;;;6181897;23;46272;-68
2022/11/30 06:48:01;;;;;;;8.20;5.75;;;17.20;75.80;;;;;;6182828;23;45195;-69
2022/11/30 06:50:28;;;;;;;11.25;6.53;;;17.20;75.80;;;;;;6182997;23;45273;-68
2022/11/30 06:52:56;;;;;;;9.05;5.95;;;17.20;75.80;;;;;;6183658;23;45177;-68
2022/11/30 06:55:22;;;;;;;9.40;6.63;;;17.10;73.70;;;;;;6182343;23;46623;-69
2022/11/30 06:57:49;;;;;;;8.55;5.82;;;17.10;74.00;;;;;;6181418;23;45327;-68
2022/11/30 07:00:18;;;;;;;9.02;5.97;;;17.10;73.80;;;;;;6183285;23;45397;-69
2022/11/30 07:02:45;;;;;;;7.78;5.85;;;17.10;74.30;;;;;;6183246;23;45380;-68
2022/11/30 07:05:12;;;;;;;9.40;6.10;;;17.20;74.60;;;;;;6182622;23;46557;-69
2022/11/30 07:07:39;;;;;;;9.18;6.43;;;17.20;74.80;;;;;;6181758;23;45275;-68
2022/11/30 07:10:07;;;;;;;8.60;5.80;;;17.20;74.80;;;;;;6182714;23;45514;-69
2022/11/30 07:12:35;;;;;;;9.85;5.93;;;17.20;75.50;;;;;;6183612;23;45210;-69
2022/11/30 07:15:02;;;;;;;9.68;5.80;;;17.20;75.50;;;;;;6181961;23;47220;-69
2022/11/30 07:17:30;;;;;;;8.45;5.50;;;17.20;75.60;;;;;;6181304;23;45318;-69
2022/11/30 07:19:57;;;;;;;8.18;5.30;;;17.20;75.80;;;;;;6183306;23;45261;-69
2022/11/30 07:22:23;;;;;;;9.68;5.88;;;17.20;75.80;;;;;;6182886;23;45424;-68
2022/11/30 07:27:34;;;;;;;7.25;5.28;;;17.20;75.80;;;;;;6182453;23;45383;-69
2022/11/30 07:30:01;;;;;;;8.82;5.65;;;17.30;75.90;;;;;;6183335;23;45212;-69
2022/11/30 07:32:30;;;;;;;8.55;5.57;;;17.30;75.90;;;;;;6181453;23;45257;-69
2022/11/30 07:34:56;;;;;;;7.13;4.65;;;17.20;76.80;;;;;;6182458;23;48136;-69
2022/11/30 07:37:23;;;;;;;8.52;5.43;;;17.30;76.70;;;;;;6182073;23;45384;-68
2022/11/30 07:39:50;;;;;;;7.15;4.75;;;17.30;77.00;;;;;;6182703;23;45245;-68
2022/11/30 07:42:17;;;;;;;8.32;5.50;;;17.30;76.80;;;;;;6183272;23;45548;-68
2022/11/30 07:44:43;;;;;;;8.68;5.63;;;17.20;76.60;;;;;;6183033;23;46562;-69
2022/11/30 07:47:10;;;;;;;7.90;5.05;;;17.20;76.40;;;;;;6181757;23;45312;-69
2022/11/30 07:49:39;;;;;;;8.65;5.47;;;17.20;75.80;;;;;;6183209;23;45273;-69
2022/11/30 07:52:05;;;;;;;9.18;5.65;;;17.20;75.80;;;;;;6182871;23;45145;-69
2022/11/30 07:54:32;;;;;;;8.45;5.32;;;17.20;75.40;;;;;;6182553;23;46266;-68
2022/11/30 07:56:59;;;;;;;7.13;4.85;;;17.20;74.90;;;;;;6182783;23;45260;-69
2022/11/30 07:59:26;;;;;;;9.10;5.40;;;17.20;75.20;;;;;;6181991;23;45487;-68
2022/11/30 08:01:54;;;;;;;7.88;5.50;;;17.20;74.70;;;;;;6183284;23;45261;-69
2022/11/30 08:04:21;;;;;;;9.95;5.50;;;17.10;74.20;;;;;;6182589;23;48542;-68
2022/11/30 08:06:49;;;;;;;8.68;5.80;;;17.10;74.10;;;;;;6180748;23;45673;-68
2022/11/30 08:09:15;;;;;;;8.75;5.53;;;17.10;73.90;;;;;;6182195;23;45403;-68
2022/11/30 08:11:42;;;;;;;8.98;5.97;;;17.10;73.90;;;;;;6182173;23;45490;-69
2022/11/30 08:14:12;;;;;;;7.03;5.05;;;17.10;73.50;;;;;;6183103;23;46316;-68
2022/11/30 08:16:38;;;;;;;8.35;5.75;;;17.10;73.60;;;;;;6182850;23;45387;-68
2022/11/30 08:19:06;;;;;;;8.68;5.20;;;17.10;73.80;;;;;;6181767;23;45316;-69
2022/11/30 08:21:32;;;;;;;8.18;5.50;;;17.20;74.20;;;;;;6182831;23;45375;-68
2022/11/30 08:24:01;;;;;;;7.55;5.35;;;17.20;74.20;;;;;;6181849;23;46317;-68
2022/11/30 08:26:29;;;;;;;7.80;5.22;;;17.20;74.10;;;;;;6182670;23;45249;-68
2022/11/30 08:28:57;;;;;;;7.50;5.25;;;17.20;74.10;;;;;;6182749;23;45281;-69
2022/11/30 08:31:26;;;;;;;7.60;5.30;;;17.20;74.20;;;;;;6181001;23;45360;-69
2022/11/30 08:33:56;;;;;;;7.20;5.55;;;17.20;73.70;;;;;;6182216;23;46600;-69
2022/11/30 08:36:24;;;;;;;7.43;4.90;;;17.20;73.80;;;;;;6182114;23;45334;-68
2022/11/30 08:38:51;;;;;;;7.90;5.15;;;17.20;73.60;;;;;;6182251;23;45433;-68
2022/11/30 08:41:21;;;;;;;8.63;5.82;;;17.20;73.30;;;;;;6182676;23;45415;-69
2022/11/30 08:43:49;;;;;;;6.97;5.03;;;17.20;73.10;;;;;;6181282;23;45434;-69
2022/11/30 08:46:18;;;;;;;9.65;5.35;;;17.20;73.10;;;;;;6182859;23;45704;-68
2022/11/30 08:48:45;;;;;;;8.07;5.47;;;17.20;72.60;;;;;;6182103;23;45280;-69
2022/11/30 08:51:14;;;;;;;8.48;5.75;;;17.20;72.50;;;;;;6183017;23;45455;-68
2022/11/30 08:53:41;;;;;;;8.32;5.50;;;17.10;72.60;;;;;;6182555;23;45273;-68
2022/11/30 08:56:11;;;;;;;9.23;5.50;;;17.10;72.50;;;;;;6181678;23;45302;-69
2022/11/30 08:58:40;;;;;;;7.07;4.95;;;17.20;72.60;;;;;;6182264;23;45396;-68
2022/11/30 09:01:08;;;;;;;8.98;5.57;;;17.10;72.70;;;;;;6181860;23;45153;-69
2022/11/30 09:03:35;;;;;;;7.55;4.95;;;17.10;72.60;;;;;;6182347;23;47129;-68
2022/11/30 09:06:06;;;;;;;7.80;5.45;;;17.20;72.90;;;;;;6181761;23;45320;-68
2022/11/30 09:08:33;;;;;;;7.30;5.18;;;17.20;72.90;;;;;;6182284;23;45328;-69
2022/11/30 09:11:07;;;;;;;7.25;4.75;;;17.20;73.40;;;;;;6182483;22;45500;-69
2022/11/30 09:13:34;;;;;;;8.73;5.38;;;17.20;73.70;;;;;;6182161;23;46485;-69
2022/11/30 09:16:02;;;;;;;8.38;5.18;;;17.20;73.70;;;;;;6182227;23;45368;-69
2022/11/30 09:18:29;;;;;;;6.63;4.65;;;17.20;74.00;;;;;;6181816;23;45352;-69
2022/11/30 09:20:59;;;;;;;7.00;4.93;;;17.20;74.00;;;;;;6180853;23;45303;-69
2022/11/30 09:23:26;;;;;;;7.15;5.03;;;17.20;74.00;;;;;;6182251;23;46490;-69
2022/11/30 09:25:55;;;;;;;7.90;5.22;;;17.30;73.90;;;;;;6181116;23;45293;-69
2022/11/30 09:28:22;;;;;;;9.65;5.93;;;17.20;73.80;;;;;;6181405;23;45512;-71
2022/11/30 09:30:49;;;;;;;7.60;5.03;;;17.20;73.70;;;;;;6181933;23;45224;-70
2022/11/30 09:33:17;;;;;;;7.82;5.38;;;17.30;73.80;;;;;;6182327;23;46525;-70
2022/11/30 09:35:44;;;;;;;7.40;5.00;;;17.30;73.00;;;;;;6181913;23;45472;-70
2022/11/30 09:38:11;;;;;;;8.10;5.22;;;17.30;72.90;;;;;;6181193;23;45260;-70
2022/11/30 09:40:41;;;;;;;8.63;5.45;;;17.30;73.00;;;;;;6182515;23;45247;-70
2022/11/30 09:43:22;;;;;;;8.40;5.15;;;17.30;72.90;;;;;;6180072;23;48175;-70
2022/11/30 09:45:55;;;;;;;7.57;5.15;;;17.30;73.00;;;;;;6182136;23;45240;-70
2022/11/30 09:48:32;;;;;;;8.15;5.13;;;17.30;73.10;;;;;;6181702;23;45377;-70
2022/11/30 09:51:05;;;;;;;10.90;5.68;;;17.30;72.60;;;;;;6182609;23;45506;-70
2022/11/30 09:53:40;;;;;;;7.88;4.80;;;17.40;72.60;;;;;;6179758;23;46416;-70
2022/11/30 09:56:19;;;;;;;10.45;5.60;;;17.30;72.30;;;;;;6181104;23;45293;-70
2022/11/30 09:58:48;;;;;;;9.82;6.10;;;17.30;72.20;;;;;;6183176;23;45537;-70
2022/11/30 10:01:18;;;;;;;9.15;5.60;;;17.40;72.50;;;;;;6183209;23;45189;-70
2022/11/30 10:03:47;;;;;;;9.18;5.40;;;17.40;72.70;;;;;;6183705;23;48014;-70
2022/11/30 10:06:24;;;;;;;9.70;5.05;;;17.40;73.00;;;;;;6182933;23;45325;-70
2022/11/30 10:09:02;;;;;;;6.97;4.80;;;17.40;73.20;;;;;;6182510;23;45283;-70
2022/11/30 10:11:43;;;;;;;7.25;4.63;;;17.40;73.40;;;;;;6183123;23;45165;-70
2022/11/30 10:14:29;;;;;;;6.75;4.60;;;17.40;73.80;;;;;;6182973;23;46282;-71
2022/11/30 10:17:02;;;;;;;8.38;4.70;;;17.40;73.70;;;;;;6183489;23;45221;-71
2022/11/30 10:19:48;;;;;;;9.10;5.05;;;17.40;73.80;;;;;;6182074;23;45283;-70
2022/11/30 10:22:26;;;;;;;7.68;4.88;;;17.40;73.80;;;;;;6183465;23;45459;-70
2022/11/30 10:25:12;;;;;;;7.60;4.93;;;17.40;73.80;;;;;;6182571;23;45467;-69
2022/11/30 10:27:50;;;;;;;8.20;5.35;;;17.40;74.90;;;;;;6182281;23;45206;-69
2022/11/30 10:30:21;;;;;;;8.88;5.45;;;17.30;72.80;;;;;;6183591;23;45232;-69
2022/11/30 10:32:51;;;;;;;9.03;5.80;;;17.30;72.50;;;;;;6182707;23;45473;-69
2022/11/30 10:35:33;;;;;;;7.93;5.20;;;17.30;72.60;;;;;;6183021;23;47211;-69
2022/11/30 10:38:05;;;;;;;8.57;5.53;;;17.30;73.80;;;;;;6182109;23;45538;-70
2022/11/30 10:40:37;;;;;;;9.82;4.80;;;17.40;73.30;;;;;;6183281;23;45365;-70
2022/11/30 10:43:12;;;;;;;10.18;5.65;;;17.40;72.60;;;;;;6181908;23;45227;-70
2022/11/30 10:45:46;;;;;;;9.98;5.50;;;17.40;72.40;;;;;;6182887;23;47362;-71
2022/11/30 10:48:17;;;;;;;8.45;5.68;;;17.40;72.20;;;;;;6182575;23;45788;-69
2022/11/30 10:50:46;;;;;;;7.35;5.28;;;17.40;72.10;;;;;;6182978;23;45459;-70
2022/11/30 10:53:13;;;;;;;10.45;6.07;;;17.40;71.80;;;;;;6183313;23;45424;-70
2022/11/30 10:55:42;;;;;;;8.68;5.85;;;17.40;71.70;;;;;;6182470;23;47317;-69
2022/11/30 10:58:17;;;;;;;8.07;5.40;;;17.40;71.60;;;;;;6181767;23;45377;-70
2022/11/30 11:00:52;;;;;;;10.07;5.78;;;17.50;71.60;;;;;;6182039;23;45225;-69
2022/11/30 11:03:24;;;;;;;12.38;5.93;;;17.40;71.30;;;;;;6182743;23;45229;-69
2022/11/30 11:06:05;;;;;;;9.30;5.55;;;17.40;71.40;;;;;;6182556;23;46299;-70
2022/11/30 11:08:32;;;;;;;10.13;5.35;;;17.40;71.20;;;;;;6181957;23;45288;-69
2022/11/30 11:10:59;;;;;;;10.63;5.90;;;17.40;71.10;;;;;;6183132;22;45247;-70
2022/11/30 11:13:37;;;;;;;9.45;6.03;;;17.40;71.30;;;;;;6183184;23;45375;-70
2022/11/30 11:16:06;;;;;;;9.65;5.40;;;17.40;71.10;;;;;;6182575;23;46247;-69
2022/11/30 11:18:33;;;;;;;10.60;5.40;;;17.40;71.10;;;;;;6182440;23;45292;-70
2022/11/30 11:21:04;;;;;;;12.52;6.00;;;17.40;71.00;;;;;;6182402;23;45351;-70
2022/11/30 11:23:34;;;;;;;11.32;5.80;;;17.50;71.10;;;;;;6183118;23;45484;-70
2022/11/30 11:26:01;;;;;;;10.25;5.97;;;17.50;72.30;;;;;;6179498;23;45284;-71
2022/11/30 11:28:29;;;;;;;10.65;5.55;;;17.40;71.30;;;;;;6179593;23;45243;-71
2022/11/30 11:30:58;;;;;;;11.73;6.72;;;17.50;71.80;;;;;;6179808;23;45472;-71
2022/11/30 11:33:27;;;;;;;9.53;6.03;;;17.40;72.10;;;;;;6180404;23;45659;-71
2022/11/30 11:35:55;;;;;;;11.38;6.35;;;17.40;72.30;;;;;;6181050;23;45364;-70
2022/11/30 11:38:27;;;;;;;10.40;6.47;;;17.30;72.40;;;;;;6181422;23;45362;-71
2022/11/30 11:41:01;;;;;;;9.73;6.47;;;17.30;72.70;;;;;;6181419;23;45397;-70
2022/11/30 11:43:30;;;;;;;9.80;6.32;;;17.30;72.40;;;;;;6180895;23;45499;-70
2022/11/30 11:45:59;;;;;;;9.25;5.63;;;17.30;72.60;;;;;;6181984;23;48001;-70
2022/11/30 11:48:36;;;;;;;12.15;5.50;;;17.30;72.60;;;;;;6181811;23;45365;-70
2022/11/30 11:51:04;;;;;;;10.00;6.18;;;17.40;72.40;;;;;;6182206;23;45312;-71
2022/11/30 11:53:43;;;;;;;11.03;6.83;;;17.40;72.70;;;;;;6181447;23;45295;-71
2022/11/30 11:56:13;;;;;;;8.13;5.40;;;17.40;72.60;;;;;;6182470;23;45296;-71
2022/11/30 11:58:46;;;;;;;9.88;6.07;;;17.30;72.60;;;;;;6181589;23;45203;-71
2022/11/30 12:01:23;;;;;;;8.85;5.22;;;17.40;72.60;;;;;;6183157;23;45393;-70
2022/11/30 12:04:02;;;;;;;7.70;5.10;;;17.40;72.50;;;;;;6183390;23;45214;-71
2022/11/30 12:06:30;;;;;;;8.07;5.32;;;17.40;72.60;;;;;;6182281;23;46297;-71
2022/11/30 12:09:04;;;;;;;7.53;5.25;;;17.40;72.50;;;;;;6182578;23;45185;-70
2022/11/30 12:11:41;;;;;;;9.77;5.13;;;17.40;72.60;;;;;;6180913;22;45248;-71
2022/11/30 12:14:11;;;;;;;8.75;5.53;;;17.40;72.50;;;;;;6180835;23;45220;-71
2022/11/30 12:16:53;;;;;;;10.23;5.72;;;17.40;72.40;;;;;;6180391;23;48035;-70
2022/11/30 12:19:22;;;;;;;9.68;5.78;;;17.40;72.00;;;;;;6179716;23;45334;-71
2022/11/30 12:22:03;;;;;;;8.10;5.07;;;17.40;72.10;;;;;;6181219;23;45409;-71
2022/11/30 12:24:53;;;;;;;11.05;5.95;;;17.40;71.90;;;;;;6180085;23;45423;-71
2022/11/30 12:27:29;;;;;;;8.15;5.40;;;17.40;72.00;;;;;;6179867;23;48223;-71
2022/11/30 12:30:05;;;;;;;9.57;6.03;;;17.40;72.00;;;;;;6180052;23;45922;-71
2022/11/30 12:32:47;;;;;;;8.13;5.53;;;17.40;72.30;;;;;;6181121;23;45300;-71
2022/11/30 12:35:27;;;;;;;9.20;5.65;;;17.30;72.40;;;;;;6180498;23;45307;-71
2022/11/30 12:38:06;;;;;;;8.15;5.28;;;17.30;72.30;;;;;;6178625;23;46957;-71
2022/11/30 12:40:42;;;;;;;8.88;5.57;;;17.30;72.60;;;;;;6180217;23;45309;-71
2022/11/30 12:43:17;;;;;;;8.68;5.50;;;17.30;72.40;;;;;;6178798;23;45237;-71
2022/11/30 12:45:44;;;;;;;9.05;5.53;;;17.30;72.60;;;;;;6180858;23;45530;-71
2022/11/30 12:48:23;;;;;;;8.68;5.25;;;17.30;72.60;;;;;;6179378;23;45308;-71
2022/11/30 12:51:03;;;;;;;8.57;5.50;;;17.30;72.70;;;;;;6180543;23;45354;-71
2022/11/30 12:53:35;;;;;;;10.35;5.65;;;17.30;72.70;;;;;;6180496;23;45451;-70